createdAt,value
2019-05-25T00:00:45.713Z,99.90
2019-05-25T00:03:13.595Z,99.90
2019-05-25T00:05:41.407Z,99.90
2019-05-25T00:08:09.232Z,99.90
2019-05-25T00:10:37.012Z,99.90
2019-05-25T00:13:04.839Z,99.90
2019-05-25T00:15:32.691Z,99.90
2019-05-25T00:18:00.525Z,99.90
2019-05-25T00:20:28.293Z,99.90
2019-05-25T00:22:56.104Z,99.90
2019-05-25T00:25:23.924Z,99.90
2019-05-25T00:27:51.742Z,99.90
2019-05-25T00:30:19.636Z,99.90
2019-05-25T00:32:47.478Z,99.90
2019-05-25T00:35:15.256Z,99.90
2019-05-25T00:37:43.072Z,99.90
2019-05-25T00:40:11.286Z,99.90
2019-05-25T00:42:39.109Z,99.90
2019-05-25T00:45:07.028Z,99.90
2019-05-25T00:47:34.855Z,99.90
2019-05-25T00:50:03.080Z,99.90
2019-05-25T00:52:30.890Z,99.90
2019-05-25T00:54:58.693Z,99.90
2019-05-25T00:57:26.472Z,99.90
2019-05-25T00:59:54.269Z,99.90
2019-05-25T01:02:22.055Z,99.90
2019-05-25T01:04:49.827Z,99.90
2019-05-25T01:07:17.636Z,99.90
2019-05-25T01:09:45.434Z,99.90
2019-05-25T01:12:13.249Z,99.90
2019-05-25T01:14:41.038Z,99.90
2019-05-25T01:17:08.825Z,99.90
2019-05-25T01:19:36.615Z,99.90
2019-05-25T01:22:04.418Z,99.90
2019-05-25T01:24:44.066Z,99.90
2019-05-25T01:27:02.094Z,99.90
2019-05-25T01:29:29.880Z,99.90
2019-05-25T01:31:57.667Z,99.90
2019-05-25T01:34:25.459Z,99.90
2019-05-25T01:36:53.285Z,99.90
2019-05-25T01:39:21.208Z,99.90
2019-05-25T01:41:49.008Z,99.90
2019-05-25T01:44:16.846Z,99.90
2019-05-25T01:46:44.674Z,99.90
2019-05-25T01:49:12.523Z,99.90
2019-05-25T01:51:40.315Z,99.90
2019-05-25T01:54:08.087Z,99.90
2019-05-25T01:56:35.875Z,99.90
2019-05-25T01:59:03.879Z,99.90
2019-05-25T02:01:31.689Z,99.90
2019-05-25T02:03:59.484Z,99.90
2019-05-25T02:06:27.300Z,99.90
2019-05-25T02:08:55.098Z,99.90
2019-05-25T02:11:22.910Z,99.90
2019-05-25T02:13:50.749Z,99.90
2019-05-25T02:16:18.652Z,99.90
2019-05-25T02:18:46.544Z,99.90
2019-05-25T02:21:14.349Z,99.90
2019-05-25T02:23:42.137Z,99.90
2019-05-25T02:26:09.929Z,99.90
2019-05-25T02:28:37.726Z,99.90
2019-05-25T02:31:05.518Z,99.90
2019-05-25T02:33:33.428Z,99.90
2019-05-25T02:36:01.640Z,99.90
2019-05-25T02:38:29.450Z,99.90
2019-05-25T02:40:57.442Z,99.90
2019-05-25T02:43:25.237Z,99.90
2019-05-25T02:45:53.054Z,99.90
2019-05-25T02:48:20.821Z,99.90
2019-05-25T02:50:48.814Z,99.90
2019-05-25T02:53:16.609Z,99.90
2019-05-25T02:55:44.394Z,99.90
2019-05-25T02:58:12.161Z,99.90
2019-05-25T03:00:39.964Z,99.90
2019-05-25T03:03:07.906Z,99.90
2019-05-25T03:05:35.853Z,99.90
2019-05-25T03:08:04.061Z,99.90
2019-05-25T03:10:32.741Z,99.90
2019-05-25T03:13:02.058Z,99.90
2019-05-25T03:15:29.835Z,99.90
2019-05-25T03:17:57.615Z,99.90
2019-05-25T03:20:25.423Z,99.90
2019-05-25T03:22:53.217Z,99.90
2019-05-25T03:25:21.024Z,99.90
2019-05-25T03:27:48.823Z,99.90
2019-05-25T03:30:29.933Z,99.90
2019-05-25T03:32:57.838Z,99.90
2019-05-25T03:35:25.669Z,99.90
2019-05-25T03:37:53.465Z,99.90
2019-05-25T03:40:21.284Z,99.90
2019-05-25T03:42:49.079Z,99.90
2019-05-25T03:45:17.053Z,99.90
2019-05-25T03:47:44.855Z,99.90
2019-05-25T03:50:12.959Z,99.90
2019-05-25T03:52:40.745Z,99.90
2019-05-25T03:55:08.577Z,99.90
2019-05-25T03:57:36.325Z,99.90
2019-05-25T04:00:04.614Z,99.90
2019-05-25T04:02:32.434Z,99.90
2019-05-25T04:05:00.247Z,99.90
2019-05-25T04:07:28.085Z,99.90
2019-05-25T04:09:55.888Z,99.90
2019-05-25T04:12:23.676Z,99.90
2019-05-25T04:14:51.453Z,99.90
2019-05-25T04:17:19.231Z,99.90
2019-05-25T04:19:47.029Z,99.90
2019-05-25T04:22:14.808Z,99.90
2019-05-25T04:24:42.610Z,99.90
2019-05-25T04:27:10.409Z,99.90
2019-05-25T04:29:38.191Z,99.90
2019-05-25T04:32:05.976Z,99.90
2019-05-25T04:34:33.754Z,99.90
2019-05-25T04:37:01.584Z,99.90
2019-05-25T04:39:29.376Z,99.90
2019-05-25T04:41:57.252Z,99.90
2019-05-25T04:44:25.055Z,99.90
2019-05-25T04:46:52.917Z,99.90
2019-05-25T04:49:20.724Z,99.90
2019-05-25T04:51:48.555Z,99.90
2019-05-25T04:54:16.474Z,99.90
2019-05-25T04:56:44.309Z,99.90
2019-05-25T04:59:12.101Z,99.90
2019-05-25T05:01:39.940Z,99.90
2019-05-25T05:04:07.752Z,99.90
2019-05-25T05:06:35.584Z,99.90
2019-05-25T05:09:05.038Z,99.90
2019-05-25T05:11:32.943Z,99.90
2019-05-25T05:14:00.769Z,99.90
2019-05-25T05:16:28.530Z,99.90
2019-05-25T05:18:56.297Z,99.90
2019-05-25T05:21:24.152Z,99.90
2019-05-25T05:23:51.959Z,99.90
2019-05-25T05:26:19.763Z,99.90
2019-05-25T05:28:49.247Z,99.90
2019-05-25T05:31:23.453Z,99.90
2019-05-25T05:33:46.899Z,99.90
2019-05-25T05:36:15.491Z,99.90
2019-05-25T05:38:45.126Z,99.90
2019-05-25T05:41:16.103Z,99.90
2019-05-25T05:43:47.175Z,99.90
2019-05-25T05:46:19.402Z,99.90
2019-05-25T05:48:50.547Z,99.90
2019-05-25T05:51:20.825Z,99.90
2019-05-25T05:53:54.536Z,99.90
2019-05-25T05:56:22.340Z,99.90
2019-05-25T05:58:50.178Z,99.90
2019-05-25T06:01:18.050Z,99.90
2019-05-25T06:03:45.864Z,99.90
2019-05-25T06:06:13.650Z,99.90
2019-05-25T06:08:41.451Z,99.90
2019-05-25T06:11:09.276Z,99.90
2019-05-25T06:16:04.832Z,99.90
2019-05-25T06:18:32.627Z,99.90
2019-05-25T06:21:00.441Z,99.90
2019-05-25T06:23:28.260Z,99.90
2019-05-25T06:25:56.065Z,99.90
2019-05-25T06:28:23.910Z,99.90
2019-05-25T06:33:19.538Z,99.90
2019-05-25T06:35:47.334Z,99.90
2019-05-25T06:38:15.197Z,99.90
2019-05-25T06:40:43.106Z,99.90
2019-05-25T06:43:10.956Z,99.90
2019-05-25T06:45:38.755Z,99.90
2019-05-25T06:48:06.600Z,99.90
2019-05-25T06:50:34.398Z,99.90
2019-05-25T06:53:02.252Z,99.90
2019-05-25T06:55:30.073Z,99.90
2019-05-25T06:57:57.872Z,99.90
2019-05-25T07:00:25.788Z,99.90
2019-05-25T07:02:53.611Z,99.90
2019-05-25T07:05:21.688Z,99.90
2019-05-25T07:07:49.615Z,99.90
2019-05-25T07:10:17.462Z,99.90
2019-05-25T07:12:45.321Z,99.90
2019-05-25T07:15:14.543Z,99.90
2019-05-25T07:17:42.458Z,99.90
2019-05-25T07:20:11.001Z,99.90
2019-05-25T07:22:38.972Z,97.90
2019-05-25T07:25:07.407Z,94.60
2019-05-25T07:27:35.229Z,92.20
2019-05-25T07:30:03.598Z,92.90
2019-05-25T07:32:31.497Z,95.40
2019-05-25T07:34:59.374Z,97.10
2019-05-25T07:37:27.272Z,97.40
2019-05-25T07:39:55.448Z,97.10
2019-05-25T07:42:23.523Z,97.80
2019-05-25T07:44:51.319Z,99.90
2019-05-25T07:47:19.183Z,99.90
2019-05-25T07:49:47.118Z,99.90
2019-05-25T07:52:14.939Z,99.90
2019-05-25T07:54:42.764Z,99.90
2019-05-25T07:57:10.659Z,99.90
2019-05-25T07:59:38.523Z,99.90
2019-05-25T08:02:06.464Z,99.90
2019-05-25T08:04:34.339Z,99.90
2019-05-25T08:07:02.185Z,99.90
2019-05-25T08:09:30.028Z,99.90
2019-05-25T08:11:58.121Z,99.90
2019-05-25T08:14:26.501Z,99.90
2019-05-25T08:16:54.575Z,99.90
2019-05-25T08:19:22.435Z,99.70
2019-05-25T08:21:50.283Z,97.80
2019-05-25T08:24:18.079Z,96.20
2019-05-25T08:26:45.905Z,95.00
2019-05-25T08:29:13.763Z,95.50
2019-05-25T08:31:41.541Z,94.30
2019-05-25T08:34:09.509Z,93.20
2019-05-25T08:36:37.383Z,92.00
2019-05-25T08:39:06.391Z,92.00
2019-05-25T08:41:34.189Z,92.70
2019-05-25T08:44:04.468Z,92.30
2019-05-25T08:46:31.795Z,91.90
2019-05-25T08:48:59.690Z,92.20
2019-05-25T08:51:27.603Z,93.60
2019-05-25T08:53:55.487Z,94.10
2019-05-25T08:56:23.301Z,94.30
2019-05-25T08:58:51.139Z,94.30
2019-05-25T09:01:19.007Z,94.30
2019-05-25T09:03:46.840Z,94.60
2019-05-25T09:06:14.671Z,94.80
2019-05-25T09:08:42.473Z,94.10
2019-05-25T09:11:10.306Z,94.60
2019-05-25T09:13:38.092Z,94.10
2019-05-25T09:16:05.993Z,93.50
2019-05-25T09:18:33.776Z,93.80
2019-05-25T09:21:01.599Z,92.80
2019-05-25T09:23:29.473Z,90.30
2019-05-25T09:25:57.419Z,83.80
2019-05-25T09:28:25.235Z,78.40
2019-05-25T09:30:53.079Z,77.10
2019-05-25T09:33:20.892Z,73.00
2019-05-25T09:35:48.696Z,71.80
2019-05-25T09:38:16.523Z,70.80
2019-05-25T09:40:44.308Z,70.00
2019-05-25T09:43:12.137Z,67.90
2019-05-25T09:45:39.930Z,68.00
2019-05-25T09:48:07.812Z,67.30
2019-05-25T09:50:35.640Z,66.00
2019-05-25T09:53:03.553Z,64.30
2019-05-25T09:55:31.488Z,61.70
2019-05-25T09:57:59.397Z,59.30
2019-05-25T10:00:27.628Z,62.00
2019-05-25T10:02:55.454Z,61.00
2019-05-25T10:05:23.309Z,58.50
2019-05-25T10:07:51.266Z,57.50
2019-05-25T10:10:19.667Z,57.30
2019-05-25T10:12:47.520Z,57.70
2019-05-25T10:15:15.516Z,58.20
2019-05-25T10:17:43.374Z,57.80
2019-05-25T10:20:11.669Z,54.30
2019-05-25T10:22:39.590Z,51.90
2019-05-25T10:25:07.754Z,50.90
2019-05-25T10:27:35.611Z,51.20
2019-05-25T10:30:04.882Z,49.70
2019-05-25T10:32:32.694Z,48.20
2019-05-25T10:35:00.563Z,46.90
2019-05-25T10:37:28.402Z,45.00
2019-05-25T10:39:56.198Z,46.20
2019-05-25T10:42:24.016Z,46.70
2019-05-25T10:44:51.881Z,46.90
2019-05-25T10:47:19.665Z,48.20
2019-05-25T10:49:47.475Z,47.80
2019-05-25T10:52:15.309Z,48.00
2019-05-25T10:54:43.135Z,47.90
2019-05-25T10:57:13.205Z,45.40
2019-05-25T10:59:52.568Z,45.30
2019-05-25T11:02:10.340Z,44.80
2019-05-25T11:04:38.138Z,44.50
2019-05-25T11:07:05.962Z,45.70
2019-05-25T11:09:33.774Z,46.90
2019-05-25T11:12:01.591Z,46.80
2019-05-25T11:14:29.495Z,45.10
2019-05-25T11:16:57.275Z,45.00
2019-05-25T11:19:25.125Z,43.40
2019-05-25T11:21:52.982Z,42.70
2019-05-25T11:24:20.734Z,42.70
2019-05-25T11:26:48.517Z,42.10
2019-05-25T11:29:16.357Z,42.10
2019-05-25T11:31:54.019Z,42.20
2019-05-25T11:34:13.903Z,42.30
2019-05-25T11:36:41.797Z,44.00
2019-05-25T11:39:09.640Z,46.40
2019-05-25T11:41:37.488Z,49.80
2019-05-25T11:44:05.299Z,51.00
2019-05-25T11:46:33.120Z,52.40
2019-05-25T11:49:00.960Z,54.80
2019-05-25T11:51:28.742Z,55.90
2019-05-25T11:53:56.571Z,54.30
2019-05-25T11:56:24.500Z,51.80
2019-05-25T11:58:52.383Z,49.40
2019-05-25T12:01:20.196Z,47.10
2019-05-25T12:03:48.022Z,47.30
2019-05-25T12:06:15.795Z,50.80
2019-05-25T12:08:43.605Z,52.60
2019-05-25T12:11:11.401Z,53.90
2019-05-25T12:13:39.291Z,55.70
2019-05-25T12:16:07.109Z,57.80
2019-05-25T12:18:34.916Z,57.50
2019-05-25T12:21:02.746Z,55.70
2019-05-25T12:23:30.649Z,56.40
2019-05-25T12:25:58.452Z,57.80
2019-05-25T12:28:26.270Z,58.20
2019-05-25T12:30:54.062Z,57.80
2019-05-25T12:33:21.861Z,58.10
2019-05-25T12:35:49.662Z,58.90
2019-05-25T12:38:17.488Z,58.50
2019-05-25T12:40:53.669Z,58.00
2019-05-25T12:43:15.061Z,54.60
2019-05-25T12:45:42.870Z,52.70
2019-05-25T12:48:10.709Z,51.40
2019-05-25T12:50:38.544Z,49.40
2019-05-25T12:53:06.374Z,47.10
2019-05-25T12:55:34.245Z,47.30
2019-05-25T12:58:02.067Z,47.80
2019-05-25T13:00:29.943Z,50.60
2019-05-25T13:02:57.902Z,50.80
2019-05-25T13:05:34.039Z,52.20
2019-05-25T13:07:55.525Z,56.20
2019-05-25T13:10:23.414Z,58.50
2019-05-25T13:12:51.291Z,58.30
2019-05-25T13:15:19.101Z,59.90
2019-05-25T13:17:46.999Z,62.30
2019-05-25T13:20:15.058Z,62.70
2019-05-25T13:22:42.946Z,62.00
2019-05-25T13:25:11.860Z,60.20
2019-05-25T13:27:39.771Z,58.60
2019-05-25T13:30:07.955Z,55.50
2019-05-25T13:32:35.764Z,53.90
2019-05-25T13:35:04.150Z,56.20
2019-05-25T13:37:31.937Z,57.60
2019-05-25T13:39:59.832Z,56.20
2019-05-25T13:42:27.699Z,55.60
2019-05-25T13:44:55.541Z,56.40
2019-05-25T13:47:23.417Z,58.00
2019-05-25T13:49:51.310Z,60.80
2019-05-25T13:52:19.210Z,62.40
2019-05-25T13:54:47.022Z,62.00
2019-05-25T13:57:14.828Z,61.10
2019-05-25T13:59:42.657Z,62.10
2019-05-25T14:02:10.463Z,64.80
2019-05-25T14:04:38.273Z,66.70
2019-05-25T14:07:06.126Z,66.60
2019-05-25T14:09:33.889Z,65.50
2019-05-25T14:12:01.755Z,65.80
2019-05-25T14:14:29.553Z,66.40
2019-05-25T14:16:57.424Z,66.10
2019-05-25T14:19:25.217Z,66.30
2019-05-25T14:21:53.049Z,67.00
2019-05-25T14:24:20.929Z,68.10
2019-05-25T14:26:48.802Z,68.00
2019-05-25T14:29:16.700Z,68.60
2019-05-25T14:31:46.221Z,68.30
2019-05-25T14:34:14.234Z,69.50
2019-05-25T14:36:42.037Z,69.90
2019-05-25T14:39:09.864Z,70.20
2019-05-25T14:41:37.677Z,70.90
2019-05-25T14:44:05.469Z,71.60
2019-05-25T14:46:33.266Z,71.20
2019-05-25T14:49:01.070Z,71.30
2019-05-25T14:51:28.894Z,72.50
2019-05-25T14:53:56.686Z,74.00
2019-05-25T14:56:24.503Z,75.20
2019-05-25T14:58:52.441Z,76.00
2019-05-25T15:01:20.320Z,77.20
2019-05-25T15:03:48.144Z,77.30
2019-05-25T15:06:20.538Z,78.00
2019-05-25T15:08:45.719Z,78.00
2019-05-25T15:11:13.499Z,78.10
2019-05-25T15:13:41.337Z,77.70
2019-05-25T15:16:09.111Z,79.20
2019-05-25T15:18:36.936Z,80.00
2019-05-25T15:21:04.768Z,81.10
2019-05-25T15:23:32.613Z,82.60
2019-05-25T15:26:00.458Z,82.90
2019-05-25T15:28:28.279Z,82.90
2019-05-25T15:30:56.089Z,83.60
2019-05-25T15:33:23.917Z,83.60
2019-05-25T15:35:51.684Z,83.00
2019-05-25T15:38:19.515Z,83.00
2019-05-25T15:40:47.344Z,83.60
2019-05-25T15:43:15.141Z,84.60
2019-05-25T15:45:44.410Z,86.30
2019-05-25T15:48:12.265Z,87.10
2019-05-25T15:50:40.059Z,87.50
2019-05-25T15:53:07.844Z,87.50
2019-05-25T15:55:35.718Z,88.40
2019-05-25T15:58:03.546Z,88.90
2019-05-25T16:00:45.891Z,88.90
2019-05-25T16:03:14.708Z,88.10
2019-05-25T16:05:42.498Z,87.60
2019-05-25T16:08:10.348Z,87.60
2019-05-25T16:10:40.629Z,89.40
2019-05-25T16:13:08.490Z,90.00
2019-05-25T16:15:36.331Z,90.70
2019-05-25T16:18:04.166Z,91.20
2019-05-25T16:20:31.970Z,91.50
2019-05-25T16:22:59.814Z,92.20
2019-05-25T16:25:27.719Z,92.60
2019-05-25T16:27:55.507Z,92.90
2019-05-25T16:30:23.366Z,93.10
2019-05-25T16:35:20.938Z,93.50
2019-05-25T16:37:49.104Z,93.20
2019-05-25T16:40:17.397Z,93.30
2019-05-25T16:42:45.215Z,93.60
2019-05-25T16:45:13.935Z,93.70
2019-05-25T16:47:41.753Z,93.80
2019-05-25T16:50:14.301Z,93.90
2019-05-25T16:52:39.621Z,93.90
2019-05-25T16:55:08.326Z,93.90
2019-05-25T16:57:36.139Z,94.30
2019-05-25T17:00:04.789Z,94.20
2019-05-25T17:02:32.647Z,94.20
2019-05-25T17:05:00.566Z,94.70
2019-05-25T17:07:28.360Z,95.10
2019-05-25T17:09:56.161Z,95.90
2019-05-25T17:12:24.001Z,96.40
2019-05-25T17:14:51.871Z,96.90
2019-05-25T17:17:19.714Z,97.50
2019-05-25T17:19:47.535Z,97.70
2019-05-25T17:22:15.375Z,98.00
2019-05-25T17:24:43.179Z,98.00
2019-05-25T17:27:10.970Z,98.40
2019-05-25T17:29:38.802Z,98.70
2019-05-25T17:32:06.625Z,99.10
2019-05-25T17:34:34.437Z,99.20
2019-05-25T17:37:02.271Z,99.60
2019-05-25T17:39:30.092Z,99.90
2019-05-25T17:41:58.059Z,99.90
2019-05-25T17:44:26.033Z,99.90
2019-05-25T17:46:54.297Z,99.90
2019-05-25T17:49:29.718Z,99.90
2019-05-25T17:51:59.886Z,99.90
2019-05-25T17:54:30.158Z,99.90
2019-05-25T17:57:00.563Z,99.90
2019-05-25T17:59:28.456Z,99.90
2019-05-25T18:01:56.554Z,99.90
2019-05-25T18:04:24.499Z,99.90
2019-05-25T18:06:52.356Z,99.90
2019-05-25T18:09:20.331Z,99.90
2019-05-25T18:11:48.170Z,99.90
2019-05-25T18:14:16.013Z,99.90
2019-05-25T18:16:44.046Z,99.90
2019-05-25T18:19:11.947Z,99.90
2019-05-25T18:21:39.807Z,99.90
2019-05-25T18:24:07.895Z,99.90
2019-05-25T18:26:35.993Z,99.90
2019-05-25T18:29:03.942Z,99.90
2019-05-25T18:31:31.888Z,99.90
2019-05-25T18:33:59.739Z,99.90
2019-05-25T18:36:27.593Z,99.90
2019-05-25T18:38:55.436Z,99.90
2019-05-25T18:41:23.300Z,99.90
2019-05-25T18:43:51.116Z,99.90
2019-05-25T18:46:18.990Z,99.90
2019-05-25T18:48:46.802Z,99.90
2019-05-25T18:51:14.708Z,99.90
2019-05-25T18:53:42.519Z,99.90
2019-05-25T18:56:10.369Z,99.90
2019-05-25T18:58:38.228Z,99.90
2019-05-25T19:01:06.102Z,99.90
2019-05-25T19:03:33.936Z,99.90
2019-05-25T19:06:01.814Z,99.90
2019-05-25T19:08:29.699Z,99.90
2019-05-25T19:10:57.550Z,99.90
2019-05-25T19:13:25.361Z,99.90
2019-05-25T19:15:53.243Z,99.90
2019-05-25T19:18:21.121Z,99.90
2019-05-25T19:20:49.121Z,99.90
2019-05-25T19:23:17.003Z,99.90
2019-05-25T19:25:44.833Z,99.90
2019-05-25T19:28:12.752Z,99.90
2019-05-25T19:30:40.574Z,99.90
2019-05-25T19:33:08.469Z,99.90
2019-05-25T19:35:36.370Z,99.90
2019-05-25T19:38:04.292Z,99.90
2019-05-25T19:40:32.122Z,99.90
2019-05-25T19:42:59.946Z,99.90
2019-05-25T19:45:27.877Z,99.90
2019-05-25T19:47:55.929Z,99.90
2019-05-25T19:50:23.875Z,99.90
2019-05-25T19:52:51.807Z,99.90
2019-05-25T19:55:19.867Z,99.90
2019-05-25T19:57:47.740Z,99.90
2019-05-25T20:00:16.168Z,99.90
2019-05-25T20:02:44.116Z,99.90
2019-05-25T20:05:16.798Z,99.90
2019-05-25T20:07:44.058Z,99.90
2019-05-25T20:10:12.466Z,99.90
2019-05-25T20:12:40.452Z,99.90
2019-05-25T20:15:08.859Z,99.90
2019-05-25T20:17:36.710Z,99.90
2019-05-25T20:20:05.206Z,99.90
2019-05-25T20:22:33.045Z,99.90
2019-05-25T20:25:00.904Z,99.90
2019-05-25T20:27:28.802Z,99.90
2019-05-25T20:29:56.679Z,99.90
2019-05-25T20:32:24.600Z,99.90
2019-05-25T20:34:52.404Z,99.90
2019-05-25T20:37:20.290Z,99.90
2019-05-25T20:39:48.169Z,99.90
2019-05-25T20:42:15.968Z,99.90
2019-05-25T20:44:43.771Z,99.90
2019-05-25T20:47:11.567Z,99.90
2019-05-25T20:49:39.389Z,99.90
2019-05-25T20:52:07.185Z,99.90
2019-05-25T20:54:35.071Z,99.90
2019-05-25T20:57:02.879Z,99.90
2019-05-25T20:59:30.699Z,99.90
2019-05-25T21:01:58.543Z,99.90
2019-05-25T21:04:26.538Z,99.90
2019-05-25T21:06:54.330Z,99.90
2019-05-25T21:09:22.151Z,99.90
2019-05-25T21:11:50.744Z,99.90
2019-05-25T21:14:18.545Z,99.90
2019-05-25T21:16:46.325Z,99.90
2019-05-25T21:19:14.142Z,99.90
2019-05-25T21:21:41.967Z,99.90
2019-05-25T21:24:09.817Z,99.90
2019-05-25T21:26:37.692Z,99.90
2019-05-25T21:29:05.485Z,99.90
2019-05-25T21:31:33.403Z,99.90
2019-05-25T21:34:01.263Z,99.90
2019-05-25T21:36:29.070Z,99.90
2019-05-25T21:38:56.909Z,99.90
2019-05-25T21:41:24.704Z,99.90
2019-05-25T21:43:52.541Z,99.90
2019-05-25T21:46:20.373Z,99.90
2019-05-25T21:48:48.199Z,99.90
2019-05-25T21:51:16.099Z,99.90
2019-05-25T21:53:44.149Z,99.90
2019-05-25T21:56:12.193Z,99.90
2019-05-25T21:58:40.078Z,99.90
2019-05-25T22:01:08.140Z,99.90
2019-05-25T22:03:36.046Z,99.90
2019-05-25T22:06:03.839Z,99.90
2019-05-25T22:08:31.639Z,99.90
2019-05-25T22:10:59.453Z,99.90
2019-05-25T22:13:28.851Z,99.90
2019-05-25T22:15:57.064Z,99.90
2019-05-25T22:18:24.937Z,99.90
2019-05-25T22:20:52.815Z,99.90
2019-05-25T22:23:20.584Z,99.90
2019-05-25T22:25:48.438Z,99.90
2019-05-25T22:28:16.204Z,99.90
2019-05-25T22:30:44.033Z,99.90
2019-05-25T22:33:11.981Z,99.90
2019-05-25T22:35:39.969Z,99.90
2019-05-25T22:38:07.874Z,99.90
2019-05-25T22:40:35.718Z,99.90
2019-05-25T22:43:03.502Z,99.90
2019-05-25T22:45:31.344Z,99.90
2019-05-25T22:47:59.140Z,99.90
2019-05-25T22:50:26.960Z,99.90
2019-05-25T22:52:54.782Z,99.90
2019-05-25T22:55:22.596Z,99.90
2019-05-25T22:57:50.372Z,99.90
2019-05-25T23:00:18.474Z,99.90
2019-05-25T23:02:46.268Z,99.90
2019-05-25T23:05:14.219Z,99.90
2019-05-25T23:07:42.027Z,99.90
2019-05-25T23:10:10.453Z,99.90
2019-05-25T23:12:38.244Z,99.90
2019-05-25T23:15:06.427Z,99.90
2019-05-25T23:17:34.261Z,99.90
2019-05-25T23:20:02.047Z,99.90
2019-05-25T23:22:29.987Z,99.90
2019-05-25T23:24:57.919Z,99.90
2019-05-25T23:27:25.783Z,99.90
2019-05-25T23:29:53.611Z,99.90
2019-05-25T23:32:21.463Z,99.90
2019-05-25T23:34:49.276Z,99.90
2019-05-25T23:37:17.084Z,99.90
2019-05-25T23:39:44.915Z,99.90
2019-05-25T23:42:12.823Z,99.90
2019-05-25T23:44:40.645Z,99.90
2019-05-25T23:47:08.453Z,99.90
2019-05-25T23:49:36.239Z,99.90
2019-05-25T23:52:04.044Z,99.90
2019-05-25T23:54:31.860Z,99.90
2019-05-25T23:56:59.778Z,99.90
2019-05-25T23:59:27.597Z,99.90
